Bookmark and Share
Track history (hours):
 

Sanko Independence

Last reported at 2014-Apr-23 08:34 UTC. Time now 2014-Apr-24 14:06 UTC.
Position N 50°27' W 001°60'.

Length 174 m; draft 7.9 m.

Type: Ship (hazmat cat C). MMSI: 636013946.

NotesDate/timePositionNaut miles runAvg speedWind from/ knotsBaromVisibWave heightAir tempDewpointWater temp
2014-Apr-23 08:34N 50°27' W 001°60'1818.1
2014-Apr-23 07:34N 50°28' W 001°31'1918.6
2014-Apr-23 06:34N 50°29' W 001°02'1717.5
2014-Apr-23 05:34N 50°30' W 000°35'1616.3
2014-Apr-23 04:33N 50°31' W 000°09'1515.3
2014-Apr-23 03:33N 50°34' E 000°14'1514.8
2014-Apr-23 02:33N 50°39' E 000°37'1615.7
2014-Apr-23 01:34N 50°47' E 000°58'1716.6
2014-Apr-23 00:34N 50°56' E 001°20'1817.6
2014-Apr-22 23:34N 51°09' E 001°39'1616.4
2014-Apr-22 22:34N 51°22' E 001°54'1815.3
2014-Apr-22 21:22N 51°36' E 002°13'1315.1
2014-Apr-22 20:30N 51°46' E 002°26'7815.4
2014-Apr-22 15:28N 52°58' E 003°16'1817.0
2014-Apr-22 14:25N 53°15' E 003°26'34816.4
2014-Apr-21 17:13N 57°42' E 009°58'1217.3
2014-Apr-21 16:34N 57°48' E 010°17'1716.6
2014-Apr-21 15:34N 57°47' E 010°48'1414.0
2014-Apr-21 14:33N 57°37' E 011°07'1616.3
2014-Apr-21 13:33N 57°25' E 011°27'1615.9
2014-Apr-21 12:33N 57°10' E 011°37'1615.8
2014-Apr-21 11:33N 56°55' E 011°47'1413.5
2014-Apr-21 10:33N 56°42' E 011°46'1515.4
2014-Apr-21 09:33N 56°32' E 011°24'2510.9
2014-Apr-21 07:18N 56°10' E 011°06'9113.4
2014-Apr-21 00:33N 54°39' E 011°03'1615.8
2014-Apr-20 23:33N 54°32' E 011°27'1616.0
2014-Apr-20 22:34N 54°25' E 011°51'1313.3
2014-Apr-20 21:33N 54°14' E 012°04'5 4.6
2014-Apr-20 20:31N 54°10' E 012°08'0 0.0
2014-Apr-20 19:31N 54°10' E 012°08'0 0.0
2014-Apr-20 18:31N 54°10' E 012°08'0 0.0
2014-Apr-20 17:31N 54°10' E 012°08'0 0.0
2014-Apr-20 16:28N 54°10' E 012°08'0 0.0
2014-Apr-20 15:28N 54°10' E 012°08'0 0.0
2014-Apr-20 14:28N 54°10' E 012°08'0 0.0
2014-Apr-20 13:31N 54°10' E 012°08'0 0.0
2014-Apr-20 12:19N 54°10' E 012°08'0 0.0
2014-Apr-20 11:31N 54°10' E 012°08'0 0.0
2014-Apr-20 10:31N 54°10' E 012°08'0 0.0
2014-Apr-20 09:31N 54°10' E 012°08'0 0.0
2014-Apr-20 08:31N 54°10' E 012°08'0 0.0
2014-Apr-20 07:31N 54°10' E 012°08'0 0.0
2014-Apr-20 06:25N 54°10' E 012°08'0 0.0
2014-Apr-20 05:31N 54°10' E 012°08'0 0.0
2014-Apr-20 04:33N 54°10' E 012°08'0 0.0
2014-Apr-20 03:33N 54°10' E 012°08'0 0.0
2014-Apr-20 02:25N 54°10' E 012°08'0 0.5
2014-Apr-20 01:33N 54°10' E 012°08'6 5.5
2014-Apr-20 00:33N 54°14' E 012°03'1010.4
2014-Apr-19 23:33N 54°21' E 011°49'1514.6
2014-Apr-19 22:33N 54°29' E 011°28'1414.2
2014-Apr-19 21:33N 54°36' E 011°07'2712.0
2014-Apr-19 19:21N 55°03' E 011°01'1213.7
2014-Apr-19 18:27N 55°14' E 011°05'5112.4
2014-Apr-19 14:21N 56°05' E 011°05'4013.3
2014-Apr-19 11:20N 56°40' E 011°41'1113.8
2014-Apr-19 10:33N 56°50' E 011°49'1616.1
2014-Apr-19 09:33N 57°05' E 011°39'1616.0
2014-Apr-19 08:33N 57°20' E 011°28'1616.0
2014-Apr-19 07:33N 57°33' E 011°11'1616.2
2014-Apr-19 06:33N 57°44' E 010°50'1312.8
2014-Apr-19 05:34N 57°47' E 010°26'1716.6
2014-Apr-19 04:33N 57°45' E 009°55'12815.3
2014-Apr-18 20:11N 58°00' E 005°57'1015.1
2014-Apr-18 19:34N 58°06' E 005°43'1615.9
2014-Apr-18 18:33N 58°17' E 005°21'1616.4
2014-Apr-18 17:32N 58°29' E 004°59'50913.4
2014-Apr-17 03:28N 66°17' E 012°09'1111.7
2014-Apr-17 02:34N 66°16' E 012°35'1413.8
2014-Apr-17 01:33N 66°26' E 012°59'1413.1
2014-Apr-17 00:28N 66°40' E 013°08'8 0.3
2014-Apr-15 22:32N 66°47' E 013°17'1413.8
2014-Apr-15 21:32N 66°34' E 013°05'1212.2
2014-Apr-15 20:33N 66°22' E 012°58'1313.4
2014-Apr-15 19:33N 66°15' E 012°30'8 8.4
2014-Apr-15 18:33N 66°17' E 012°09'  
2014-Apr-13 12:12N 56°25' E 004°05'  

Dump ship's entire track history

sailing weather and tide predictions

Sanko Independence — A8QJ9 — position and weather